CheckWX is a tool to help pilots better visualize weather data.  It is not intended as a substitute for an official pre-flight weather briefing.

07:01:16 UTC

KCLL METAR
Easterwood Field Airport
College Station, Texas, USA
Current

8 mins ago

KCLL 030653Z AUTO 12010KT 10SM FEW023 BKN030 OVC050 19/17 A2992 RMK AO2 SLP127 T01890172
Observed
Apr-3 @ 06:53 UTC
Wind
  • 120° at 10 KTS
Visibility
Flight Rules
MVFR
Cloud Levels
  • Few at 2,300' AGL
  • Broken at 3,000' AGL
  • Overcast at 5,000' AGL
Temperature
19°C / 66°F
Dewpoint
17°C / 63°F
Humidity
88%
Altimeter
29.92" Hg
Pressure
1013.22 hPa
Previous

1 hour ago

KCLL 030553Z AUTO 10009KT 10SM FEW028 OVC050 19/17 A2993 RMK AO2 SLP130 60004 T01890172 10206 20189 402500144 50005
Observed
Apr-3 @ 05:53 UTC
Wind
  • 100° at 9 KTS
Visibility
Flight Rules
VFR
Cloud Levels
  • Few at 2,800' AGL
  • Overcast at 5,000' AGL
Dewpoint
17°C / 63°F
Humidity
88%
Altimeter
29.93" Hg
Pressure
1013.52 hPa
Previous

2 hours ago

KCLL 030530Z AUTO 09010KT 10SM FEW022 SCT036 OVC050 19/18 A2992 RMK AO2 T01890178
Observed
Apr-3 @ 05:30 UTC
Wind
  • 090° at 10 KTS
Visibility
Flight Rules
VFR
Cloud Levels
  • Few at 2,200' AGL
  • Scattered at 3,600' AGL
  • Overcast at 5,000' AGL
Temperature
19°C / 66°F
Dewpoint
18°C / 64°F
Humidity
94%
Altimeter
29.92" Hg
Pressure
1013.22 hPa